createdAt,value
2022-08-10T00:00:12.752Z,99.70
2022-08-10T00:02:39.599Z,99.90
2022-08-10T00:05:07.028Z,99.90
2022-08-10T00:07:34.082Z,99.90
2022-08-10T00:10:01.049Z,99.90
2022-08-10T00:12:53.209Z,99.90
2022-08-10T00:15:52.399Z,99.90
2022-08-10T00:18:05.747Z,99.90
2022-08-10T00:20:32.697Z,99.90
2022-08-10T00:22:59.598Z,99.90
2022-08-10T00:25:26.597Z,99.90
2022-08-10T00:28:02.637Z,99.90
2022-08-10T00:30:30.430Z,99.90
2022-08-10T00:32:57.319Z,99.90
2022-08-10T00:35:24.376Z,99.90
2022-08-10T00:37:56.386Z,99.90
2022-08-10T00:40:37.473Z,99.90
2022-08-10T00:43:08.377Z,99.90
2022-08-10T00:45:36.196Z,99.90
2022-08-10T00:48:03.959Z,99.90
2022-08-10T00:50:31.236Z,99.90
2022-08-10T00:52:58.262Z,99.90
2022-08-10T00:55:26.253Z,99.90
2022-08-10T00:57:54.706Z,99.90
2022-08-10T01:00:23.999Z,99.90
2022-08-10T01:02:51.352Z,99.90
2022-08-10T01:05:20.363Z,99.90
2022-08-10T01:08:09.152Z,99.90
2022-08-10T01:10:59.730Z,99.90
2022-08-10T01:13:50.852Z,99.90
2022-08-10T01:16:23.724Z,99.90
2022-08-10T01:19:35.504Z,99.90
2022-08-10T01:22:38.125Z,99.90
2022-08-10T01:25:07.988Z,99.90
2022-08-10T01:28:14.061Z,99.90
2022-08-10T01:30:43.327Z,99.90
2022-08-10T01:33:19.466Z,99.90
2022-08-10T01:36:17.957Z,99.90
2022-08-10T01:38:50.370Z,99.90
2022-08-10T01:41:24.105Z,99.90
2022-08-10T01:44:11.399Z,99.90
2022-08-10T01:46:42.694Z,99.90
2022-08-10T01:49:12.782Z,99.90
2022-08-10T01:51:46.140Z,99.90
2022-08-10T01:54:16.423Z,99.90
2022-08-10T01:56:50.003Z,99.90
2022-08-10T01:59:21.064Z,99.90
2022-08-10T02:01:59.028Z,99.90
2022-08-10T02:04:28.314Z,99.90
2022-08-10T02:06:57.652Z,99.90
2022-08-10T02:09:30.658Z,99.90
2022-08-10T02:12:07.177Z,99.90
2022-08-10T02:14:42.385Z,99.90
2022-08-10T02:17:57.512Z,99.90
2022-08-10T02:20:09.498Z,99.90
2022-08-10T02:22:39.118Z,99.90
2022-08-10T02:25:09.237Z,99.90
2022-08-10T02:27:57.137Z,99.90
2022-08-10T02:30:24.129Z,99.90
2022-08-10T02:32:52.955Z,99.90
2022-08-10T02:35:22.670Z,99.90
2022-08-10T02:37:53.399Z,99.90
2022-08-10T02:45:03.022Z,99.90
2022-08-10T02:45:29.505Z,99.90
2022-08-10T02:46:35.123Z,99.90
2022-08-10T02:49:04.945Z,99.90
2022-08-10T02:52:07.614Z,99.90
2022-08-10T02:55:06.172Z,99.90
2022-08-10T02:58:16.635Z,99.90
2022-08-10T03:00:47.480Z,99.90
2022-08-10T03:03:31.797Z,99.90
2022-08-10T03:06:05.903Z,99.90
2022-08-10T03:08:42.890Z,99.90
2022-08-10T03:12:35.032Z,99.90
2022-08-10T03:14:10.024Z,99.90
2022-08-10T03:16:37.592Z,99.90
2022-08-10T03:19:07.764Z,99.90
2022-08-10T03:21:55.804Z,99.90
2022-08-10T03:24:33.329Z,99.90
2022-08-10T03:27:01.481Z,99.90
2022-08-10T03:29:29.047Z,99.90
2022-08-10T03:31:57.046Z,99.90
2022-08-10T03:34:32.995Z,99.90
2022-08-10T03:37:01.014Z,99.90
2022-08-10T03:39:28.501Z,99.90
2022-08-10T03:42:00.732Z,99.90
2022-08-10T03:44:33.559Z,99.90
2022-08-10T03:47:02.575Z,99.90
2022-08-10T03:49:31.386Z,99.90
2022-08-10T03:51:59.131Z,99.90
2022-08-10T03:54:27.608Z,99.90
2022-08-10T03:56:55.187Z,99.90
2022-08-10T03:59:22.453Z,99.90
2022-08-10T04:02:44.797Z,99.90
2022-08-10T04:04:39.208Z,99.90
2022-08-10T04:07:06.735Z,99.90
2022-08-10T04:09:54.379Z,99.90
2022-08-10T05:11:46.093Z,99.90
2022-08-10T05:14:12.951Z,99.90
2022-08-10T05:16:39.859Z,99.90
2022-08-10T05:19:06.716Z,99.90
2022-08-10T05:22:02.963Z,99.90
2022-08-10T05:24:20.396Z,99.90
2022-08-10T05:27:00.297Z,99.90
2022-08-10T05:29:37.723Z,99.90
2022-08-10T05:32:05.074Z,99.90
2022-08-10T05:34:32.025Z,99.90
2022-08-10T05:37:03.734Z,99.90
2022-08-10T05:39:32.270Z,99.90
2022-08-10T05:42:01.230Z,99.90
2022-08-10T05:44:29.824Z,99.90
2022-08-10T05:46:56.997Z,99.90
2022-08-10T05:49:24.349Z,99.90
2022-08-10T05:51:51.928Z,99.90
2022-08-10T05:54:19.910Z,99.90
2022-08-10T05:56:57.033Z,99.90
2022-08-10T06:00:33.503Z,99.90
2022-08-10T06:02:38.400Z,99.90
2022-08-10T06:05:21.644Z,99.90
2022-08-10T06:07:55.936Z,99.90
2022-08-10T06:10:31.159Z,99.90
2022-08-10T06:13:30.450Z,99.90
2022-08-10T06:16:06.721Z,99.90
2022-08-10T06:18:34.176Z,99.90
2022-08-10T06:21:01.716Z,99.90
2022-08-10T06:23:33.075Z,99.90
2022-08-10T06:26:08.879Z,99.90
2022-08-10T06:28:58.208Z,99.90
2022-08-10T06:31:48.237Z,99.90
2022-08-10T06:34:32.310Z,99.90
2022-08-10T06:37:05.952Z,99.90
2022-08-10T06:39:35.360Z,99.90
2022-08-10T06:42:18.508Z,99.90
2022-08-10T06:45:01.122Z,99.90
2022-08-10T06:47:45.241Z,99.90
2022-08-10T06:50:58.218Z,99.90
2022-08-10T06:53:53.761Z,99.90
2022-08-10T06:56:38.086Z,99.90
2022-08-10T06:59:30.516Z,99.90
2022-08-10T07:02:05.954Z,99.90
2022-08-10T07:04:56.468Z,99.90
2022-08-10T07:07:28.057Z,99.90
2022-08-10T07:09:57.823Z,99.90
2022-08-10T07:12:26.125Z,99.90
2022-08-10T07:14:55.858Z,99.90
2022-08-10T07:17:25.992Z,99.90
2022-08-10T07:19:56.689Z,99.90
2022-08-10T07:23:01.373Z,99.90
2022-08-10T07:25:25.360Z,99.90
2022-08-10T07:27:59.727Z,99.80
2022-08-10T07:30:37.534Z,99.90
2022-08-10T07:33:06.490Z,99.90
2022-08-10T07:35:42.246Z,99.90
2022-08-10T07:38:30.359Z,99.60
2022-08-10T07:41:00.216Z,99.60
2022-08-10T07:43:34.856Z,99.40
2022-08-10T07:46:05.547Z,98.40
2022-08-10T07:48:49.426Z,97.90
2022-08-10T07:51:20.327Z,98.00
2022-08-10T07:53:52.955Z,97.50
2022-08-10T07:56:45.824Z,97.50
2022-08-10T07:59:18.914Z,97.40
2022-08-10T08:01:50.777Z,97.30
2022-08-10T08:04:22.219Z,97.30
2022-08-10T08:06:51.742Z,97.70
2022-08-10T08:09:23.339Z,97.10
2022-08-10T08:11:51.740Z,97.20
2022-08-10T08:14:21.894Z,96.90
2022-08-10T08:16:52.743Z,96.30
2022-08-10T08:19:27.921Z,96.80
2022-08-10T08:24:04.465Z,96.20
2022-08-10T08:24:45.207Z,95.20
2022-08-10T08:27:19.800Z,95.40
2022-08-10T08:29:49.566Z,94.60
2022-08-10T08:32:23.321Z,94.40
2022-08-10T08:34:58.851Z,93.60
2022-08-10T08:38:31.605Z,93.50
2022-08-10T08:40:29.433Z,92.10
2022-08-10T08:43:34.760Z,92.10
2022-08-10T08:46:04.548Z,91.50
2022-08-10T08:50:05.092Z,91.60
2022-08-10T08:52:55.633Z,91.30
2022-08-10T08:56:24.906Z,91.50
2022-08-10T08:59:38.765Z,90.00
2022-08-10T09:02:29.512Z,88.70
2022-08-10T09:05:14.430Z,88.40
2022-08-10T09:08:03.209Z,87.90
2022-08-10T09:11:01.836Z,88.00
2022-08-10T09:13:44.756Z,88.30
2022-08-10T09:16:59.688Z,86.40
2022-08-10T09:19:47.203Z,86.90
2022-08-10T09:22:34.073Z,86.30
2022-08-10T09:25:34.760Z,85.10
2022-08-10T09:28:30.049Z,85.70
2022-08-10T09:31:21.939Z,85.00
2022-08-10T09:36:25.141Z,83.50
2022-08-10T09:37:11.593Z,86.10
2022-08-10T09:40:06.620Z,84.70
2022-08-10T09:43:36.069Z,80.50
2022-08-10T09:46:36.919Z,77.60
2022-08-10T09:49:16.494Z,78.20
2022-08-10T09:52:15.278Z,77.70
2022-08-10T09:54:52.148Z,76.90
2022-08-10T09:57:57.013Z,77.60
2022-08-10T10:00:35.938Z,76.70
2022-08-10T10:03:36.356Z,77.80
2022-08-10T10:06:20.615Z,76.70
2022-08-10T10:09:15.794Z,74.50
2022-08-10T10:12:12.114Z,73.00
2022-08-10T10:15:24.104Z,72.40
2022-08-10T10:18:16.742Z,72.80
2022-08-10T10:21:05.232Z,72.80
2022-08-10T10:24:20.428Z,71.70
2022-08-10T10:27:03.655Z,73.10
2022-08-10T10:29:55.612Z,71.60
2022-08-10T10:33:03.813Z,70.00
2022-08-10T10:35:44.885Z,71.80
2022-08-10T10:38:13.782Z,70.20
2022-08-10T10:41:01.682Z,71.40
2022-08-10T10:43:43.545Z,73.20
2022-08-10T10:46:57.327Z,71.60
2022-08-10T10:50:00.179Z,71.10
2022-08-10T10:52:32.223Z,68.20
2022-08-10T10:55:26.454Z,67.90
2022-08-10T10:58:28.445Z,68.90
2022-08-10T11:01:12.888Z,68.30
2022-08-10T11:04:03.332Z,67.00
2022-08-10T11:07:01.388Z,67.40
2022-08-10T11:10:09.278Z,68.40
2022-08-10T11:12:33.960Z,68.60
2022-08-10T11:15:16.845Z,68.10
2022-08-10T11:17:54.508Z,65.50
2022-08-10T11:20:39.667Z,65.60
2022-08-10T11:23:19.371Z,66.60
2022-08-10T11:25:56.717Z,68.10
2022-08-10T11:28:37.474Z,67.60
2022-08-10T11:31:20.036Z,67.60
2022-08-10T11:34:32.007Z,67.30
2022-08-10T11:37:15.717Z,67.30
2022-08-10T11:40:20.255Z,67.90
2022-08-10T11:43:10.060Z,67.50
2022-08-10T11:45:51.409Z,67.20
2022-08-10T11:48:54.222Z,68.10
2022-08-10T11:51:42.860Z,67.20
2022-08-10T11:54:55.930Z,66.10
2022-08-10T11:57:53.106Z,66.60
2022-08-10T12:00:19.497Z,63.40
2022-08-10T12:02:53.957Z,63.70
2022-08-10T12:05:20.909Z,63.30
2022-08-10T12:10:03.971Z,64.20
2022-08-10T12:10:50.585Z,63.30
2022-08-10T12:13:25.552Z,61.60
2022-08-10T12:16:23.567Z,61.10
2022-08-10T12:19:14.739Z,60.60
2022-08-10T12:22:05.118Z,62.10
2022-08-10T12:25:07.595Z,62.00
2022-08-10T12:27:53.443Z,60.00
2022-08-10T12:30:29.592Z,60.00
2022-08-10T12:37:12.275Z,59.80
2022-08-10T12:40:39.689Z,61.30
2022-08-10T12:44:04.685Z,62.50
2022-08-10T12:46:39.685Z,62.50
2022-08-10T12:49:28.622Z,63.40
2022-08-10T12:52:13.856Z,64.10
2022-08-10T12:54:42.674Z,62.90
2022-08-10T12:57:16.550Z,63.10
2022-08-10T12:59:51.804Z,63.70
2022-08-10T13:02:43.963Z,65.60
2022-08-10T13:05:15.052Z,64.30
2022-08-10T13:08:25.186Z,64.40
2022-08-10T13:10:33.018Z,64.20
2022-08-10T13:13:00.963Z,64.00
2022-08-10T13:15:49.356Z,63.90
2022-08-10T13:18:29.806Z,62.80
2022-08-10T13:21:20.652Z,63.70
2022-08-10T13:23:59.622Z,61.70
2022-08-10T13:26:37.028Z,61.20
2022-08-10T13:29:13.127Z,61.60
2022-08-10T13:32:09.941Z,61.50
2022-08-10T13:34:43.678Z,62.30
2022-08-10T13:37:17.482Z,61.00
2022-08-10T13:39:59.008Z,59.90
2022-08-10T13:42:33.048Z,61.60
2022-08-10T13:45:14.628Z,62.20
2022-08-10T13:47:48.144Z,61.90
2022-08-10T13:50:35.516Z,62.20
2022-08-10T13:53:14.293Z,61.50
2022-08-10T13:55:57.176Z,60.40
2022-08-10T13:58:36.406Z,62.20
2022-08-10T14:01:22.866Z,61.90
2022-08-10T14:03:52.643Z,60.20
2022-08-10T14:06:29.666Z,59.30
2022-08-10T14:09:02.847Z,58.00
2022-08-10T14:11:31.326Z,58.80
2022-08-10T14:14:03.237Z,57.50
2022-08-10T14:16:30.980Z,58.90
2022-08-10T14:19:11.657Z,57.50
2022-08-10T14:21:41.092Z,56.10
2022-08-10T14:24:25.691Z,57.10
2022-08-10T14:27:10.464Z,57.40
2022-08-10T14:29:55.038Z,55.90
2022-08-10T14:32:30.533Z,56.20
2022-08-10T14:36:18.995Z,55.90
2022-08-10T14:37:58.558Z,57.30
2022-08-10T14:40:34.190Z,56.30
2022-08-10T14:43:07.039Z,58.70
2022-08-10T14:45:37.739Z,57.40
2022-08-10T14:48:16.161Z,57.20
2022-08-10T14:50:54.802Z,55.30
2022-08-10T14:53:29.763Z,56.10
2022-08-10T14:56:27.265Z,56.30
2022-08-10T14:59:07.685Z,57.10
2022-08-10T15:02:38.337Z,58.20
2022-08-10T15:04:29.253Z,58.40
2022-08-10T15:07:12.390Z,58.00
2022-08-10T15:10:00.151Z,59.30
2022-08-10T15:12:39.221Z,59.40
2022-08-10T15:15:10.978Z,59.50
2022-08-10T15:17:53.137Z,61.10
2022-08-10T15:20:25.472Z,60.50
2022-08-10T15:23:30.027Z,60.20
2022-08-10T15:26:11.072Z,61.10
2022-08-10T15:29:23.739Z,60.40
2022-08-10T15:32:00.084Z,60.00
2022-08-10T15:34:47.951Z,60.00
2022-08-10T15:37:39.365Z,59.30
2022-08-10T15:40:50.452Z,59.40
2022-08-10T15:43:25.438Z,60.10
2022-08-10T15:46:03.473Z,58.40
2022-08-10T15:48:41.245Z,58.40
2022-08-10T15:51:27.980Z,57.30
2022-08-10T15:54:05.533Z,56.40
2022-08-10T15:56:50.695Z,55.40
2022-08-10T15:59:39.361Z,55.70
2022-08-10T16:02:17.119Z,56.80
2022-08-10T16:04:55.418Z,57.90
2022-08-10T16:07:49.263Z,57.30
2022-08-10T16:10:28.256Z,58.30
2022-08-10T16:26:38.291Z,58.80
2022-08-10T16:29:11.493Z,58.40
2022-08-10T16:31:50.051Z,58.40
2022-08-10T16:34:17.860Z,59.30
2022-08-10T16:37:03.422Z,59.70
2022-08-10T16:39:58.555Z,59.40
2022-08-10T16:42:31.034Z,59.80
2022-08-10T16:45:38.743Z,58.60
2022-08-10T16:48:06.841Z,59.10
2022-08-10T16:50:41.711Z,58.40
2022-08-10T16:53:14.883Z,58.80
2022-08-10T16:55:50.547Z,60.10
2022-08-10T16:58:35.906Z,61.20
2022-08-10T17:01:10.979Z,60.80
2022-08-10T17:04:07.034Z,61.90
2022-08-10T17:07:04.268Z,63.50
2022-08-10T17:09:35.492Z,63.70
2022-08-10T17:12:13.263Z,63.90
2022-08-10T17:14:43.281Z,64.80
2022-08-10T17:17:26.374Z,64.80
2022-08-10T17:20:32.218Z,65.20
2022-08-10T17:22:48.812Z,67.00
2022-08-10T17:25:48.976Z,64.70
2022-08-10T17:28:35.903Z,65.20
2022-08-10T17:31:54.440Z,64.60
2022-08-10T17:34:28.267Z,66.30
2022-08-10T17:37:03.984Z,66.30
2022-08-10T17:39:52.345Z,65.50
2022-08-10T17:42:22.170Z,67.00
2022-08-10T17:44:53.416Z,65.30
2022-08-10T17:47:23.657Z,66.50
2022-08-10T17:49:59.625Z,67.90
2022-08-10T17:52:32.616Z,67.90
2022-08-10T17:55:07.189Z,66.50
2022-08-10T17:57:37.862Z,67.80
2022-08-10T18:00:12.878Z,67.00
2022-08-10T18:02:44.481Z,67.70
2022-08-10T18:05:13.532Z,68.80
2022-08-10T18:07:51.068Z,68.50
2022-08-10T18:10:21.789Z,68.40
2022-08-10T18:12:55.029Z,69.60
2022-08-10T18:15:27.668Z,70.00
2022-08-10T18:18:00.191Z,70.00
2022-08-10T18:20:35.191Z,68.00
2022-08-10T18:23:03.497Z,69.80
2022-08-10T18:25:35.371Z,69.20
2022-08-10T18:28:06.350Z,68.30
2022-08-10T18:30:45.691Z,69.40
2022-08-10T18:33:15.912Z,69.00
2022-08-10T18:35:45.720Z,70.40
2022-08-10T18:38:15.414Z,70.40
2022-08-10T18:40:53.788Z,70.30
2022-08-10T18:44:05.997Z,71.80
2022-08-10T18:46:30.732Z,72.10
2022-08-10T18:49:11.608Z,73.30
2022-08-10T18:51:47.395Z,73.60
2022-08-10T18:54:39.698Z,72.40
2022-08-10T18:57:35.794Z,73.20
2022-08-10T19:00:15.131Z,74.90
2022-08-10T19:03:11.481Z,76.20
2022-08-10T19:06:12.221Z,74.80
2022-08-10T19:08:59.055Z,77.30
2022-08-10T19:12:30.788Z,77.70
2022-08-10T19:15:14.632Z,76.80
2022-08-10T19:18:20.246Z,80.30
2022-08-10T19:21:14.447Z,77.70
2022-08-10T19:24:18.072Z,78.90
2022-08-10T19:27:04.198Z,80.10
2022-08-10T19:30:11.054Z,79.60
2022-08-10T19:32:55.212Z,78.60
2022-08-10T19:36:04.302Z,78.80
2022-08-10T19:38:54.280Z,79.00
2022-08-10T19:41:44.728Z,81.00
2022-08-10T19:44:46.098Z,82.20
2022-08-10T19:47:31.363Z,82.90
2022-08-10T19:50:32.954Z,84.50
2022-08-10T19:53:26.939Z,83.90
2022-08-10T19:56:34.699Z,83.90
2022-08-10T19:59:04.136Z,82.20
2022-08-10T20:01:55.841Z,83.80
2022-08-10T20:04:29.796Z,83.70
2022-08-10T20:07:19.703Z,85.60
2022-08-10T20:10:08.956Z,85.80
2022-08-10T20:13:08.217Z,85.20
2022-08-10T20:15:48.473Z,86.30
2022-08-10T20:18:42.165Z,88.20
2022-08-10T20:21:25.779Z,87.60
2022-08-10T20:24:38.445Z,88.10
2022-08-10T20:27:56.754Z,88.30
2022-08-10T20:30:10.559Z,88.20
2022-08-10T20:32:49.526Z,89.60
2022-08-10T20:35:31.228Z,89.60
2022-08-10T20:38:11.644Z,89.00
2022-08-10T20:40:48.879Z,90.10
2022-08-10T20:43:47.834Z,90.10
2022-08-10T20:46:29.691Z,90.10
2022-08-10T20:49:04.423Z,90.30
2022-08-10T20:51:59.021Z,89.70
2022-08-10T20:54:34.210Z,90.20
2022-08-10T20:58:04.626Z,90.40
2022-08-10T21:00:11.188Z,90.60
2022-08-10T21:03:15.906Z,90.50
2022-08-10T21:06:11.755Z,90.80
2022-08-10T21:09:12.556Z,90.60
2022-08-10T21:11:53.315Z,90.90
2022-08-10T21:15:07.576Z,91.10
2022-08-10T21:18:04.666Z,90.90
2022-08-10T21:21:02.265Z,91.60
2022-08-10T21:23:39.098Z,91.30
2022-08-10T21:26:14.201Z,91.40
2022-08-10T21:29:10.624Z,91.20
2022-08-10T21:32:07.167Z,91.40
2022-08-10T21:34:57.046Z,91.60
2022-08-10T21:37:58.752Z,91.80
2022-08-10T21:40:54.037Z,92.00
2022-08-10T21:44:08.645Z,91.70
2022-08-10T21:47:01.707Z,91.70
2022-08-10T21:50:18.351Z,91.40
2022-08-10T21:53:44.096Z,91.60
2022-08-10T21:56:54.390Z,91.90
2022-08-10T22:00:22.444Z,92.20
2022-08-10T22:03:09.542Z,92.50
2022-08-10T22:05:57.846Z,92.80
2022-08-10T22:08:53.602Z,92.60
2022-08-10T22:14:09.591Z,92.80
2022-08-10T22:17:05.100Z,92.60
2022-08-10T22:20:04.547Z,93.00
2022-08-10T22:23:19.513Z,93.00
2022-08-10T22:27:00.633Z,93.10
2022-08-10T22:30:19.940Z,92.80
2022-08-10T22:33:20.706Z,92.70
2022-08-10T22:37:01.375Z,92.80
2022-08-10T22:40:18.305Z,92.60
2022-08-10T22:43:10.360Z,93.00
2022-08-10T22:46:09.399Z,93.10
2022-08-10T22:49:02.252Z,93.30
2022-08-10T22:51:53.145Z,93.30
2022-08-10T22:54:45.314Z,93.20
2022-08-10T22:57:35.916Z,93.20
2022-08-10T23:00:31.286Z,93.60
2022-08-10T23:03:23.138Z,93.40
2022-08-10T23:06:14.936Z,93.50
2022-08-10T23:08:49.258Z,93.40
2022-08-10T23:11:30.056Z,93.60
2022-08-10T23:14:07.165Z,93.70
2022-08-10T23:17:07.994Z,93.50
2022-08-10T23:19:46.201Z,92.90
2022-08-10T23:22:16.781Z,93.20
2022-08-10T23:25:00.983Z,93.10
2022-08-10T23:27:39.327Z,93.20
2022-08-10T23:30:17.101Z,93.10
2022-08-10T23:32:51.984Z,93.30
2022-08-10T23:36:30.501Z,93.70
2022-08-10T23:38:15.548Z,94.10
2022-08-10T23:40:50.091Z,94.20
2022-08-10T23:43:46.763Z,94.30
2022-08-10T23:46:14.232Z,94.40
2022-08-10T23:48:46.737Z,94.30
2022-08-10T23:51:16.455Z,94.30
2022-08-10T23:53:47.039Z,94.20
2022-08-10T23:56:18.653Z,94.60
2022-08-10T23:58:55.833Z,94.30
